createdAt,value
2022-10-30T00:00:00.805Z,21.76
2022-10-30T00:02:28.033Z,21.80
2022-10-30T00:04:55.486Z,21.70
2022-10-30T00:07:22.622Z,21.57
2022-10-30T00:09:49.745Z,21.70
2022-10-30T00:12:17.140Z,21.70
2022-10-30T00:14:44.808Z,21.88
2022-10-30T00:17:11.950Z,21.31
2022-10-30T00:19:39.371Z,21.68
2022-10-30T00:24:32.499Z,21.53
2022-10-30T00:26:59.887Z,21.54
2022-10-30T00:29:27.039Z,21.58
2022-10-30T00:31:54.204Z,20.82
2022-10-30T00:34:21.619Z,21.05
2022-10-30T00:36:48.754Z,21.09
2022-10-30T00:39:16.559Z,21.09
2022-10-30T00:41:45.128Z,21.07
2022-10-30T00:44:31.034Z,21.42
2022-10-30T00:46:59.016Z,21.80
2022-10-30T00:49:26.825Z,20.82
2022-10-30T00:51:53.969Z,21.29
2022-10-30T00:54:21.426Z,21.44
2022-10-30T00:56:48.660Z,21.36
2022-10-30T00:59:18.456Z,21.41
2022-10-30T01:01:45.917Z,21.03
2022-10-30T01:04:13.109Z,20.51
2022-10-30T01:06:41.059Z,20.85
2022-10-30T01:09:08.691Z,21.21
2022-10-30T01:11:35.897Z,21.25
2022-10-30T01:14:04.683Z,20.63
2022-10-30T01:16:38.031Z,19.84
2022-10-30T01:19:05.314Z,20.11
2022-10-30T01:21:45.040Z,20.24
2022-10-30T01:24:35.576Z,20.14
2022-10-30T01:27:02.906Z,20.50
2022-10-30T01:29:50.255Z,20.67
2022-10-30T01:32:24.273Z,21.04
2022-10-30T01:35:10.365Z,21.09
2022-10-30T01:37:50.291Z,21.04
2022-10-30T01:40:17.931Z,20.98
2022-10-30T01:42:50.274Z,20.97
2022-10-30T01:45:19.730Z,21.14
2022-10-30T01:48:05.713Z,21.61
2022-10-30T01:50:38.685Z,21.20
2022-10-30T01:53:17.155Z,21.03
2022-10-30T01:55:50.383Z,21.00
2022-10-30T01:58:19.622Z,21.18
2022-10-30T02:00:51.393Z,20.70
2022-10-30T02:03:19.334Z,20.33
2022-10-30T02:05:48.387Z,20.48
2022-10-30T02:08:17.521Z,20.76
2022-10-30T02:10:45.808Z,21.05
2022-10-30T02:13:13.104Z,20.94
2022-10-30T02:15:42.071Z,20.89
2022-10-30T02:18:09.627Z,20.79
2022-10-30T02:20:37.118Z,21.45
2022-10-30T02:23:05.135Z,20.37
2022-10-30T02:25:32.963Z,20.35
2022-10-30T02:28:00.159Z,20.69
2022-10-30T02:30:27.509Z,21.07
2022-10-30T02:32:55.215Z,20.88
2022-10-30T02:35:22.665Z,21.26
2022-10-30T02:37:50.148Z,20.84
2022-10-30T02:40:17.542Z,20.82
2022-10-30T02:42:44.717Z,20.97
2022-10-30T02:45:11.907Z,21.18
2022-10-30T02:47:39.370Z,20.73
2022-10-30T02:50:06.832Z,20.85
2022-10-30T02:52:37.726Z,20.76
2022-10-30T02:55:05.368Z,20.40
2022-10-30T02:57:35.378Z,20.37
2022-10-30T03:00:02.554Z,20.73
2022-10-30T03:02:30.183Z,20.26
2022-10-30T03:04:57.330Z,20.21
2022-10-30T03:07:25.518Z,20.49
2022-10-30T03:09:54.441Z,20.76
2022-10-30T03:12:21.936Z,20.30
2022-10-30T03:14:49.088Z,19.68
2022-10-30T03:17:16.486Z,20.05
2022-10-30T03:19:43.885Z,19.87
2022-10-30T03:22:11.023Z,19.61
2022-10-30T03:24:38.612Z,20.06
2022-10-30T03:27:05.759Z,20.21
2022-10-30T03:29:32.922Z,20.07
2022-10-30T03:32:00.795Z,20.56
2022-10-30T03:34:29.274Z,20.46
2022-10-30T03:36:56.473Z,20.44
2022-10-30T03:39:23.895Z,19.01
2022-10-30T03:41:51.117Z,19.80
2022-10-30T03:44:18.258Z,19.61
2022-10-30T03:46:45.681Z,19.87
2022-10-30T03:49:14.109Z,20.37
2022-10-30T03:51:41.244Z,19.19
2022-10-30T03:54:09.158Z,19.90
2022-10-30T03:56:36.441Z,20.12
2022-10-30T03:59:04.087Z,19.97
2022-10-30T04:01:31.682Z,19.68
2022-10-30T04:04:00.044Z,19.38
2022-10-30T04:06:27.221Z,19.10
2022-10-30T04:08:56.459Z,19.72
2022-10-30T04:11:24.160Z,19.69
2022-10-30T04:13:51.339Z,19.15
2022-10-30T04:16:18.490Z,19.47
2022-10-30T04:18:45.929Z,19.41
2022-10-30T04:21:13.133Z,19.32
2022-10-30T04:23:40.432Z,19.44
2022-10-30T04:26:09.177Z,19.26
2022-10-30T04:28:36.849Z,19.56
2022-10-30T04:31:04.077Z,19.44
2022-10-30T04:33:32.633Z,19.87
2022-10-30T04:36:00.395Z,18.62
2022-10-30T04:38:27.663Z,18.85
2022-10-30T04:40:56.354Z,19.00
2022-10-30T04:43:26.698Z,19.22
2022-10-30T04:45:53.943Z,19.30
2022-10-30T04:48:21.364Z,19.19
2022-10-30T04:50:48.506Z,18.88
2022-10-30T04:53:18.191Z,19.35
2022-10-30T04:55:46.138Z,19.80
2022-10-30T04:58:13.784Z,20.23
2022-10-30T05:00:41.515Z,20.30
2022-10-30T05:03:09.573Z,20.19
2022-10-30T05:05:36.992Z,20.03
2022-10-30T05:08:04.258Z,20.13
2022-10-30T05:10:31.721Z,20.47
2022-10-30T05:13:00.171Z,20.64
2022-10-30T05:15:27.403Z,20.25
2022-10-30T05:17:54.842Z,19.78
2022-10-30T05:20:22.289Z,19.53
2022-10-30T05:22:55.991Z,19.66
2022-10-30T05:25:23.965Z,19.69
2022-10-30T05:27:51.589Z,19.20
2022-10-30T05:30:18.928Z,19.24
2022-10-30T05:32:46.666Z,19.55
2022-10-30T05:35:13.883Z,19.89
2022-10-30T05:37:41.218Z,19.52
2022-10-30T05:40:08.837Z,19.43
2022-10-30T05:42:36.150Z,19.21
2022-10-30T05:45:03.516Z,19.38
2022-10-30T05:47:31.495Z,19.39
2022-10-30T05:49:58.812Z,19.62
2022-10-30T05:52:26.283Z,19.74
2022-10-30T05:54:53.754Z,19.79
2022-10-30T05:57:21.636Z,19.70
2022-10-30T05:59:48.840Z,20.03
2022-10-30T06:02:19.185Z,20.28
2022-10-30T06:04:47.168Z,20.08
2022-10-30T06:07:14.531Z,19.49
2022-10-30T06:09:41.815Z,19.64
2022-10-30T06:12:09.439Z,19.88
2022-10-30T06:14:37.152Z,19.78
2022-10-30T06:17:04.554Z,19.89
2022-10-30T06:19:32.448Z,20.19
2022-10-30T06:22:00.393Z,20.42
2022-10-30T06:24:27.733Z,20.28
2022-10-30T06:26:55.488Z,20.45
2022-10-30T06:29:23.646Z,20.14
2022-10-30T06:31:50.977Z,20.17
2022-10-30T06:34:18.409Z,20.45
2022-10-30T06:36:45.675Z,19.61
2022-10-30T06:39:12.842Z,20.17
2022-10-30T06:41:41.248Z,20.30
2022-10-30T06:44:08.555Z,20.39
2022-10-30T06:46:36.033Z,20.29
2022-10-30T06:49:03.454Z,20.37
2022-10-30T06:51:30.945Z,20.61
2022-10-30T06:53:58.514Z,20.56
2022-10-30T06:56:26.787Z,20.68
2022-10-30T06:58:53.968Z,20.88
2022-10-30T07:01:21.201Z,20.93
2022-10-30T07:03:51.772Z,20.79
2022-10-30T07:06:18.962Z,20.94
2022-10-30T07:08:46.515Z,21.01
2022-10-30T07:11:14.095Z,21.02
2022-10-30T07:13:41.334Z,21.02
2022-10-30T07:16:08.601Z,21.27
2022-10-30T07:18:36.055Z,20.97
2022-10-30T07:21:03.216Z,20.75
2022-10-30T07:23:31.381Z,21.17
2022-10-30T07:26:03.496Z,21.13
2022-10-30T07:28:31.704Z,20.68
2022-10-30T07:31:01.232Z,20.94
2022-10-30T07:33:29.478Z,20.99
2022-10-30T07:35:56.677Z,21.21
2022-10-30T07:38:24.256Z,21.09
2022-10-30T07:40:52.354Z,20.84
2022-10-30T07:43:19.891Z,21.27
2022-10-30T07:45:47.363Z,21.46
2022-10-30T07:48:15.180Z,21.04
2022-10-30T07:50:43.225Z,21.12
2022-10-30T07:53:10.672Z,21.14
2022-10-30T07:55:37.825Z,21.19
2022-10-30T07:58:07.175Z,20.69
2022-10-30T08:00:36.215Z,21.23
2022-10-30T08:03:04.116Z,21.57
2022-10-30T08:05:33.457Z,21.44
2022-10-30T08:08:01.446Z,21.56
2022-10-30T08:10:29.285Z,20.39
2022-10-30T08:12:57.373Z,20.54
2022-10-30T08:15:24.543Z,20.62
2022-10-30T08:17:52.247Z,19.12
2022-10-30T08:20:21.200Z,19.59
2022-10-30T08:22:49.016Z,20.73
2022-10-30T08:25:17.990Z,20.90
2022-10-30T08:27:51.254Z,21.24
2022-10-30T08:30:18.879Z,21.49
2022-10-30T08:32:46.427Z,21.23
2022-10-30T08:35:20.023Z,20.52
2022-10-30T08:37:47.911Z,20.79
2022-10-30T08:40:15.172Z,20.96
2022-10-30T08:42:43.084Z,21.02
2022-10-30T08:45:10.794Z,21.12
2022-10-30T08:47:38.910Z,20.86
2022-10-30T08:50:07.180Z,20.61
2022-10-30T08:52:34.847Z,21.26
2022-10-30T08:55:02.049Z,20.34
2022-10-30T08:57:29.822Z,20.92
2022-10-30T08:59:57.427Z,21.33
2022-10-30T09:02:26.752Z,21.12
2022-10-30T09:04:58.834Z,20.61
2022-10-30T09:07:27.376Z,20.86
2022-10-30T09:09:56.487Z,20.69
2022-10-30T09:12:24.090Z,21.11
2022-10-30T09:14:51.473Z,21.53
2022-10-30T09:17:18.981Z,21.25
2022-10-30T09:22:20.468Z,20.42
2022-10-30T09:24:48.159Z,20.72
2022-10-30T09:27:16.460Z,20.77
2022-10-30T09:29:44.304Z,21.32
2022-10-30T09:32:14.113Z,20.88
2022-10-30T09:34:41.776Z,20.58
2022-10-30T09:37:09.614Z,20.62
2022-10-30T09:39:36.958Z,20.73
2022-10-30T09:42:23.353Z,21.20
2022-10-30T09:45:27.403Z,21.28
2022-10-30T09:48:09.453Z,20.75
2022-10-30T09:50:43.510Z,21.15
2022-10-30T09:53:15.718Z,20.11
2022-10-30T09:56:02.180Z,20.63
2022-10-30T09:58:48.922Z,21.27
2022-10-30T10:01:17.836Z,20.46
2022-10-30T10:04:06.956Z,20.59
2022-10-30T10:06:34.494Z,20.82
2022-10-30T10:09:04.916Z,21.06
2022-10-30T10:11:37.280Z,20.79
2022-10-30T10:14:08.621Z,20.27
2022-10-30T10:16:36.796Z,20.35
2022-10-30T10:19:13.156Z,19.40
2022-10-30T10:21:43.156Z,20.13
2022-10-30T10:24:19.726Z,19.85
2022-10-30T10:26:50.074Z,19.93
2022-10-30T10:29:17.153Z,19.88
2022-10-30T10:31:50.072Z,20.52
2022-10-30T10:34:27.115Z,21.00
2022-10-30T10:36:54.139Z,21.08
2022-10-30T10:39:53.809Z,21.02
2022-10-30T10:42:34.463Z,21.42
2022-10-30T10:45:28.286Z,21.47
2022-10-30T10:48:07.670Z,21.42
2022-10-30T10:50:36.790Z,21.64
2022-10-30T10:53:11.214Z,21.11
2022-10-30T10:55:39.040Z,21.41
2022-10-30T10:58:07.727Z,21.12
2022-10-30T11:00:34.853Z,20.81
2022-10-30T11:06:01.151Z,20.49
2022-10-30T11:08:29.398Z,21.09
2022-10-30T11:10:57.632Z,20.98
2022-10-30T11:13:51.117Z,21.26
2022-10-30T11:16:41.526Z,21.46
2022-10-30T11:19:08.884Z,21.41
2022-10-30T11:21:38.586Z,21.51
2022-10-30T11:24:09.581Z,21.91
2022-10-30T11:26:36.984Z,21.66
2022-10-30T11:29:13.809Z,21.16
2022-10-30T11:31:42.040Z,20.96
2022-10-30T11:34:18.236Z,20.40
2022-10-30T11:36:46.269Z,20.24
2022-10-30T11:39:29.754Z,20.60
2022-10-30T11:42:15.861Z,21.11
2022-10-30T11:44:43.802Z,21.51
2022-10-30T11:47:11.685Z,21.81
2022-10-30T11:49:42.102Z,21.67
2022-10-30T11:52:09.249Z,21.99
2022-10-30T11:54:37.935Z,21.34
2022-10-30T11:57:05.106Z,21.51
2022-10-30T11:59:32.242Z,22.02
2022-10-30T12:02:03.877Z,21.13
2022-10-30T12:04:33.075Z,19.66
2022-10-30T12:07:09.130Z,20.65
2022-10-30T12:09:43.636Z,21.20
2022-10-30T12:12:11.984Z,21.36
2022-10-30T12:14:39.526Z,22.04
2022-10-30T12:17:06.700Z,21.63
2022-10-30T12:19:33.840Z,21.46
2022-10-30T12:22:01.575Z,21.60
2022-10-30T12:24:46.776Z,21.89
2022-10-30T12:27:18.197Z,22.36
2022-10-30T12:30:09.284Z,22.07
2022-10-30T12:32:59.164Z,21.92
2022-10-30T12:35:35.613Z,21.20
2022-10-30T12:38:03.281Z,21.54
2022-10-30T12:40:30.941Z,21.91
2022-10-30T12:43:06.105Z,21.41
2022-10-30T12:45:41.183Z,21.74
2022-10-30T12:48:12.286Z,21.17
2022-10-30T12:50:44.690Z,21.20
2022-10-30T12:53:14.841Z,21.61
2022-10-30T12:55:46.374Z,22.15
2022-10-30T12:58:32.366Z,21.19
2022-10-30T13:01:18.943Z,21.04
2022-10-30T13:03:50.642Z,21.46
2022-10-30T13:06:19.446Z,21.26
2022-10-30T13:09:05.079Z,21.79
2022-10-30T13:11:37.499Z,21.75
2022-10-30T13:14:04.620Z,22.01
2022-10-30T13:16:31.791Z,22.13
2022-10-30T13:19:02.942Z,21.74
2022-10-30T13:24:13.142Z,21.72
2022-10-30T13:26:42.978Z,21.97
2022-10-30T13:29:25.348Z,22.29
2022-10-30T13:32:18.852Z,21.75
2022-10-30T13:34:49.384Z,21.82
2022-10-30T13:37:28.489Z,21.62
2022-10-30T13:40:16.904Z,20.71
2022-10-30T13:42:47.159Z,20.23
2022-10-30T13:45:33.220Z,21.25
2022-10-30T13:48:03.102Z,20.46
2022-10-30T13:50:33.609Z,19.74
2022-10-30T13:53:01.917Z,20.40
2022-10-30T13:55:30.027Z,20.11
2022-10-30T13:57:57.370Z,20.33
2022-10-30T14:00:33.490Z,20.77
2022-10-30T14:03:06.270Z,20.62
2022-10-30T14:05:35.953Z,20.77
2022-10-30T14:08:06.552Z,20.78
2022-10-30T14:10:46.918Z,20.89
2022-10-30T14:13:27.001Z,21.53
2022-10-30T14:15:55.512Z,20.18
2022-10-30T14:18:27.263Z,20.23
2022-10-30T14:20:55.724Z,20.94
2022-10-30T14:23:24.236Z,21.09
2022-10-30T14:26:06.667Z,21.39
2022-10-30T14:28:35.183Z,21.14
2022-10-30T14:31:10.183Z,21.37
2022-10-30T14:33:40.559Z,21.03
2022-10-30T14:36:18.442Z,21.82
2022-10-30T14:38:55.975Z,21.67
2022-10-30T14:41:32.268Z,21.33
2022-10-30T14:44:03.445Z,20.86
2022-10-30T14:46:34.779Z,21.45
2022-10-30T14:49:04.238Z,21.27
2022-10-30T14:51:31.329Z,21.18
2022-10-30T14:54:01.454Z,20.02
2022-10-30T14:56:31.853Z,20.11
2022-10-30T14:59:22.137Z,20.75
2022-10-30T15:02:08.253Z,21.16
2022-10-30T15:04:51.953Z,21.92
2022-10-30T15:07:25.635Z,21.72
2022-10-30T15:10:11.324Z,21.34
2022-10-30T15:12:47.781Z,20.85
2022-10-30T15:15:15.605Z,21.01
2022-10-30T15:17:43.748Z,21.29
2022-10-30T15:20:18.659Z,21.36
2022-10-30T15:22:47.621Z,21.29
2022-10-30T15:25:16.199Z,21.37
2022-10-30T15:27:43.345Z,21.55
2022-10-30T15:30:18.230Z,21.92
2022-10-30T15:32:45.666Z,21.98
2022-10-30T15:35:31.971Z,21.82
2022-10-30T15:38:03.381Z,21.77
2022-10-30T15:40:31.237Z,22.11
2022-10-30T15:42:59.503Z,22.36
2022-10-30T15:45:34.180Z,22.18
2022-10-30T15:48:04.731Z,22.32
2022-10-30T15:50:32.494Z,22.44
2022-10-30T15:52:59.745Z,22.18
2022-10-30T15:55:30.906Z,22.51
2022-10-30T15:58:03.897Z,22.36
2022-10-30T16:00:33.720Z,21.94
2022-10-30T16:03:05.526Z,21.82
2022-10-30T16:05:33.005Z,21.61
2022-10-30T16:08:02.046Z,21.24
2022-10-30T16:10:31.749Z,21.45
2022-10-30T16:12:59.346Z,21.48
2022-10-30T16:15:30.838Z,21.40
2022-10-30T16:18:00.456Z,21.37
2022-10-30T16:20:28.004Z,21.88
2022-10-30T16:22:55.273Z,21.84
2022-10-30T16:25:22.423Z,22.15
2022-10-30T16:27:49.833Z,21.66
2022-10-30T16:30:17.059Z,21.43
2022-10-30T16:32:46.111Z,21.47
2022-10-30T16:35:13.630Z,21.67
2022-10-30T16:37:40.838Z,21.35
2022-10-30T16:40:16.054Z,21.88
2022-10-30T16:42:49.619Z,21.42
2022-10-30T16:45:20.069Z,21.82
2022-10-30T16:47:50.814Z,21.83
2022-10-30T16:50:18.305Z,21.86
2022-10-30T16:52:45.647Z,21.86
2022-10-30T16:55:15.798Z,21.90
2022-10-30T16:57:43.768Z,21.69
2022-10-30T17:00:26.057Z,22.11
2022-10-30T17:02:55.913Z,22.32
2022-10-30T17:05:25.630Z,22.13
2022-10-30T17:07:56.701Z,22.02
2022-10-30T17:10:34.951Z,22.44
2022-10-30T17:13:20.865Z,22.37
2022-10-30T17:15:48.323Z,22.38
2022-10-30T17:18:16.166Z,22.40
2022-10-30T17:20:44.607Z,21.99
2022-10-30T17:23:16.929Z,21.62
2022-10-30T17:25:44.474Z,21.66
2022-10-30T17:28:26.248Z,21.56
2022-10-30T17:30:53.473Z,21.07
2022-10-30T17:33:24.629Z,21.15
2022-10-30T17:38:20.550Z,21.17
2022-10-30T17:40:48.404Z,21.89
2022-10-30T17:43:16.035Z,22.02
2022-10-30T17:45:43.534Z,21.59
2022-10-30T17:48:15.109Z,22.05
2022-10-30T17:50:42.793Z,21.76
2022-10-30T17:53:14.781Z,22.00
2022-10-30T17:55:42.772Z,22.19
2022-10-30T17:58:10.209Z,22.19
2022-10-30T18:00:37.874Z,21.83
2022-10-30T18:03:10.541Z,21.28
2022-10-30T18:05:37.948Z,21.14
2022-10-30T18:08:05.379Z,21.21
2022-10-30T18:10:33.004Z,21.17
2022-10-30T18:13:00.449Z,21.24
2022-10-30T18:15:29.877Z,21.05
2022-10-30T18:17:57.709Z,21.00
2022-10-30T18:20:25.640Z,21.27
2022-10-30T18:22:54.541Z,21.46
2022-10-30T18:25:23.795Z,21.02
2022-10-30T18:27:51.615Z,21.14
2022-10-30T18:30:19.724Z,21.47
2022-10-30T18:32:47.046Z,21.52
2022-10-30T18:35:35.047Z,20.68
2022-10-30T18:38:03.132Z,21.27
2022-10-30T18:40:30.753Z,21.67
2022-10-30T18:42:59.047Z,21.82
2022-10-30T18:45:28.046Z,22.10
2022-10-30T18:47:56.530Z,21.50
2022-10-30T18:50:24.596Z,21.76
2022-10-30T18:52:53.823Z,21.84
2022-10-30T18:55:25.762Z,22.03
2022-10-30T18:57:53.660Z,22.13
2022-10-30T19:00:26.580Z,21.80
2022-10-30T19:02:55.677Z,21.44
2022-10-30T19:05:31.424Z,21.54
2022-10-30T19:08:01.386Z,21.38
2022-10-30T19:10:30.192Z,21.71
2022-10-30T19:13:11.933Z,21.10
2022-10-30T19:15:41.745Z,20.76
2022-10-30T19:18:09.190Z,20.98
2022-10-30T19:20:58.524Z,21.55
2022-10-30T19:23:28.187Z,21.61
2022-10-30T19:25:57.033Z,21.73
2022-10-30T19:28:25.756Z,21.74
2022-10-30T19:30:55.114Z,21.71
2022-10-30T19:33:23.298Z,21.74
2022-10-30T19:35:55.094Z,21.93
2022-10-30T19:38:22.597Z,20.48
2022-10-30T19:40:50.254Z,21.58
2022-10-30T19:43:18.242Z,21.79
2022-10-30T19:45:47.226Z,21.63
2022-10-30T19:48:20.718Z,21.70
2022-10-30T19:50:52.690Z,21.57
2022-10-30T19:53:20.686Z,21.76
2022-10-30T19:55:49.293Z,21.87
2022-10-30T19:58:18.773Z,21.27
2022-10-30T20:00:48.777Z,20.47
2022-10-30T20:03:19.207Z,20.86
2022-10-30T20:05:47.545Z,21.23
2022-10-30T20:08:16.743Z,20.67
2022-10-30T20:10:49.250Z,21.00
2022-10-30T20:13:16.993Z,21.14
2022-10-30T20:15:44.819Z,20.13
2022-10-30T20:18:14.192Z,20.13
2022-10-30T20:20:45.587Z,19.87
2022-10-30T20:23:13.375Z,20.76
2022-10-30T20:25:40.645Z,20.86
2022-10-30T20:28:24.438Z,20.70
2022-10-30T20:30:52.760Z,21.07
2022-10-30T20:33:20.656Z,20.99
2022-10-30T20:35:48.382Z,20.92
2022-10-30T20:38:20.007Z,20.75
2022-10-30T20:40:47.798Z,21.19
2022-10-30T20:43:16.180Z,20.82
2022-10-30T20:45:43.777Z,21.20
2022-10-30T20:48:11.746Z,21.37
2022-10-30T20:50:39.410Z,21.47
2022-10-30T20:53:07.111Z,20.68
2022-10-30T20:55:35.202Z,19.78
2022-10-30T20:58:03.058Z,20.52
2022-10-30T21:00:30.748Z,21.04
2022-10-30T21:02:58.908Z,21.12
2022-10-30T21:08:14.770Z,21.51
2022-10-30T21:10:42.152Z,21.06
2022-10-30T21:13:10.980Z,20.73
2022-10-30T21:15:42.530Z,21.04
2022-10-30T21:18:10.589Z,20.37
2022-10-30T21:20:38.511Z,19.40
2022-10-30T21:23:06.375Z,20.84
2022-10-30T21:25:34.102Z,20.52
2022-10-30T21:28:01.471Z,21.09
2022-10-30T21:30:29.205Z,20.49
2022-10-30T21:32:56.361Z,20.14
2022-10-30T21:35:23.987Z,20.51
2022-10-30T21:37:51.464Z,20.47
2022-10-30T21:40:18.589Z,20.87
2022-10-30T21:42:48.910Z,21.18
2022-10-30T21:45:16.418Z,21.22
2022-10-30T21:47:43.540Z,21.05
2022-10-30T21:50:12.613Z,19.73
2022-10-30T21:52:40.717Z,19.92
2022-10-30T21:55:08.096Z,20.63
2022-10-30T21:57:35.237Z,20.56
2022-10-30T22:00:05.658Z,20.51
2022-10-30T22:02:35.355Z,20.38
2022-10-30T22:05:02.498Z,20.71
2022-10-30T22:07:29.640Z,20.71
2022-10-30T22:09:57.072Z,21.52
2022-10-30T22:12:24.217Z,21.10
2022-10-30T22:14:51.340Z,20.75
2022-10-30T22:17:18.760Z,20.27
2022-10-30T22:19:45.905Z,20.41
2022-10-30T22:22:13.093Z,20.21
2022-10-30T22:24:40.524Z,20.31
2022-10-30T22:27:07.688Z,20.51
2022-10-30T22:29:34.863Z,20.80
2022-10-30T22:32:02.318Z,20.69
2022-10-30T22:34:29.468Z,20.63
2022-10-30T22:36:56.580Z,21.02
2022-10-30T22:39:24.192Z,21.05
2022-10-30T22:41:51.329Z,20.38
2022-10-30T22:44:18.992Z,19.78
2022-10-30T22:46:46.419Z,19.99
2022-10-30T22:49:13.552Z,18.60
2022-10-30T22:51:40.683Z,18.73
2022-10-30T22:54:09.890Z,19.43
2022-10-30T22:56:37.317Z,19.99
2022-10-30T22:59:05.439Z,19.83
2022-10-30T23:01:33.623Z,20.06
2022-10-30T23:04:01.303Z,19.66
2022-10-30T23:06:28.888Z,19.66
2022-10-30T23:08:57.323Z,19.23
2022-10-30T23:11:24.515Z,20.03
2022-10-30T23:13:51.771Z,20.08
2022-10-30T23:16:19.833Z,20.12
2022-10-30T23:18:47.097Z,20.21
2022-10-30T23:21:24.263Z,20.42
2022-10-30T23:23:51.723Z,19.96
2022-10-30T23:26:25.762Z,20.26
2022-10-30T23:28:53.780Z,20.02
2022-10-30T23:31:20.852Z,20.24
2022-10-30T23:33:51.153Z,19.75
2022-10-30T23:36:18.558Z,19.59
2022-10-30T23:38:49.945Z,19.78
2022-10-30T23:41:17.097Z,20.22
2022-10-30T23:43:44.484Z,20.02
2022-10-30T23:46:11.632Z,19.96
2022-10-30T23:48:38.773Z,20.28
2022-10-30T23:51:07.003Z,20.03
2022-10-30T23:53:34.130Z,20.47
2022-10-30T23:56:01.506Z,20.25
2022-10-30T23:58:28.919Z,20.69
